Terminal Aerodrome Forecast
Issued by NWS Grand Forks, ND

Home | Current Version | Previous Version | Graphics & Text | Print | Product List | Glossary On
Versions: 1 2 3 4 5 6 7 8 9 10 11 12 13 14 15 16 17 18 19 20 21 22 23 24 25 26 27 28 29
381
FTUS43 KFGF 132131 AAD
TAFFAR
TAF AMD
KFAR 132131Z 1322/1418 36018KT P6SM OVC015
     FM140000 36014KT P6SM BKN015
     FM140400 34006KT P6SM BKN015
     FM140800 27004KT P6SM OVC015
     FM141600 33008KT P6SM OVC010=

USA.gov is the U.S. government's official web portal to all federal, state and local government web resources and services.